This is the latest recevied weather packets stored in our database for station/object OK2ZAW-19. If no packets are shown the sender has not sent any weather packets the latest 1 day(s).
| Time | Temp. | Humidity | Pressure | Rain* | Wind** | Luminosity | Snow |
|---|---|---|---|---|---|---|---|
| 1777999177 | 20.56° C | 36% | 1006.3 hPa | - | 0 m/s | 337 W/m² | - |
| 1777998554 | 22.22° C | 34% | 1006.4 hPa | - | 0.45 m/s, 315° | 337 W/m² | - |
| 1777998242 | 22.78° C | 32% | 1006.5 hPa | - | 0 m/s | 338 W/m² | - |
| 1777997931 | 23.89° C | 31% | 1006.5 hPa | - | 0 m/s | 337 W/m² | - |
| 1777997619 | 24.44° C | 30% | 1006.6 hPa | - | 0.45 m/s, 315° | 337 W/m² | - |
| 1777997307 | 26.11° C | 29% | 1006.6 hPa | - | 0 m/s | 337 W/m² | - |
| 1777996995 | 27.22° C | 28% | 1006.6 hPa | - | 0 m/s | 337 W/m² | - |
| 1777996682 | 28.33° C | 27% | 1006.6 hPa | - | 0.45 m/s, 315° | 336 W/m² | - |
| 1777996370 | 29.44° C | 26% | 1006.6 hPa | - | 0.45 m/s, 315° | 338 W/m² | - |
| 1777996057 | 29.44° C | 26% | 1006.5 hPa | - | 0.45 m/s, 315° | 338 W/m² | - |
| 1777995432 | 28.89° C | 26% | 1006.5 hPa | - | 0.45 m/s, 315° | 337 W/m² | - |
| 1777995119 | 28.89° C | 27% | 1006.5 hPa | - | 0.45 m/s, 315° | 338 W/m² | - |
| 1777994494 | 28.89° C | 28% | 1006.6 hPa | - | 0.45 m/s, 315° | 338 W/m² | - |
| 1777994181 | 28.89° C | 28% | 1006.7 hPa | - | 0.45 m/s, 315° | 338 W/m² | - |
| 1777993869 | 28.33° C | 29% | 1006.7 hPa | - | 0.45 m/s, 315° | 337 W/m² | - |
| 1777993556 | 28.33° C | 29% | 1006.8 hPa | - | 0.89 m/s, 315° | 337 W/m² | - |
| 1777993244 | 27.78° C | 31% | 1007 hPa | - | 0.89 m/s, 315° | 337 W/m² | - |
| 1777992932 | 27.78° C | 31% | 1007 hPa | - | 0.89 m/s, 315° | 337 W/m² | - |
| 1777992619 | 27.78° C | 31% | 1007 hPa | - | 0.89 m/s, 315° | 337 W/m² | - |
| 1777991682 | 27.22° C | 32% | 1007.2 hPa | - | 1.34 m/s, 315° | 337 W/m² | - |
| 1777991057 | 27.22° C | 32% | 1007.3 hPa | - | 0.45 m/s, 315° | 337 W/m² | - |
| 1777990433 | 26.67° C | 34% | 1007.5 hPa | - | 0.89 m/s, 315° | 337 W/m² | - |
| 1777990120 | 26.67° C | 35% | 1007.6 hPa | - | 0.45 m/s, 315° | 337 W/m² | - |
| 1777989808 | 26.67° C | 35% | 1007.7 hPa | - | 0.45 m/s, 315° | 337 W/m² | - |
| 1777989496 | 26.11° C | 35% | 1007.7 hPa | - | 0.89 m/s, 315° | 337 W/m² | - |
* Rain since midnight (hover to see other rain measurements)
** Current wind speed in m/s (hover to see current wind gust speed)